Terminal Aerodrome Forecast
Issued by NWS Louisville, KY

Home | Current Version | Previous Version | Text Only | Print | Product List | Glossary On
Versions: 1 2 3 4 5 6 7 8 9 10 11 12 13 14 15 16 17 18 19 20 21 22 23 24 25 26 27
981
FTUS43 KLMK 151139
TAFLEX
TAF
KLEX 151139Z 1512/1612 04005KT 6SM BR BKN007 OVC025
      TEMPO 1512/1514 2SM BR BKN004
     FM151800 06004KT 4SM BR VCSH OVC006
     FM160200 07006KT 2SM -DZ BR OVC006
      TEMPO 1606/1610 1SM BR OVC002=

USA.gov is the U.S. government's official web portal to all federal, state and local government web resources and services.